KRDM/RDM METAR and TAF weather

Enter ICAO airport designator
Station Type Date Time Source
KRDM METAR 2022/06/27 17:56 UTC NOAA

KRDM 271756Z 00000KT 10SM CLR 29/09 A3009 RMK AO2 SLP154 T02890089 10294 20128 58009 $


Station Type Date Time Source
KRDM Decoded METAR 2022/06/27 17:56 UTC NOAA

REDMOND ROBERTS FIELD, OR, United States (KRDM) 44-15N 121-08W
Jun 27, 2022 - 01:56 PM EDT / 2022.06.27 1756 UTC
Wind: Calm:0
Visibility: 10 mile(s):0
Sky conditions: clear
Temperature: 84.0 F (28.9 C)
Dew Point: 48.0 F (8.9 C)
Relative Humidity: 28%
Pressure (altimeter): 30.09 in. Hg (1018 hPa)
Pressure tendency: 0.03 inches (0.9 hPa) lower than three hours ago
ob: KRDM 271756Z 00000KT 10SM CLR 29/09 A3009 RMK AO2 SLP154 T02890089 10294 20128 58009
cycle: 18

Station Type Date Time Source
KRDM TAF 2022/06/27 18:24 UTC NOAA

TAF KRDM 271720Z 2718/2818 VRB03KT P6SM SKC
FM272100 31010G20KT P6SM SCT100
FM280500 32007KT P6SM SKC
FM280900 VRB03KT P6SM FEW200

Example: see airport list